createdAt,value
2018-07-24T00:00:23.609Z,0.00
2018-07-24T00:01:23.635Z,0.00
2018-07-24T00:02:23.657Z,0.00
2018-07-24T00:03:23.679Z,0.00
2018-07-24T00:04:23.695Z,0.00
2018-07-24T00:05:23.724Z,0.00
2018-07-24T00:06:23.736Z,0.00
2018-07-24T00:07:23.764Z,0.00
2018-07-24T00:08:23.779Z,0.00
2018-07-24T00:09:23.799Z,0.00
2018-07-24T00:10:23.819Z,0.00
2018-07-24T00:11:23.843Z,0.00
2018-07-24T00:12:23.860Z,0.00
2018-07-24T00:13:23.896Z,0.00
2018-07-24T00:14:23.902Z,0.00
2018-07-24T00:15:23.930Z,0.00
2018-07-24T00:16:23.957Z,0.00
2018-07-24T00:17:23.964Z,0.00
2018-07-24T00:18:23.994Z,0.00
2018-07-24T00:19:24.013Z,0.00
2018-07-24T00:20:24.029Z,0.00
2018-07-24T00:21:24.050Z,0.00
2018-07-24T00:22:24.069Z,0.00
2018-07-24T00:23:24.088Z,0.00
2018-07-24T00:24:24.112Z,0.00
2018-07-24T00:25:24.136Z,0.00
2018-07-24T00:26:24.152Z,0.00
2018-07-24T00:27:24.172Z,0.00
2018-07-24T00:28:24.212Z,0.00
2018-07-24T00:29:24.216Z,0.00
2018-07-24T00:30:24.239Z,0.00
2018-07-24T00:31:24.305Z,0.00
2018-07-24T00:32:24.282Z,0.00
2018-07-24T00:33:24.296Z,0.00
2018-07-24T00:34:24.321Z,0.00
2018-07-24T00:35:24.358Z,0.00
2018-07-24T00:36:24.360Z,0.00
2018-07-24T00:37:24.378Z,0.00
2018-07-24T00:38:24.404Z,0.00
2018-07-24T00:39:24.432Z,0.00
2018-07-24T00:40:24.455Z,0.00
2018-07-24T00:41:24.484Z,0.00
2018-07-24T00:42:24.493Z,0.00
2018-07-24T00:43:24.524Z,0.00
2018-07-24T00:44:24.531Z,0.00
2018-07-24T00:45:24.543Z,0.00
2018-07-24T00:46:24.570Z,0.00
2018-07-24T00:47:24.598Z,0.00
2018-07-24T00:48:24.613Z,0.00
2018-07-24T00:49:24.629Z,0.00
2018-07-24T00:50:24.657Z,0.00
2018-07-24T00:51:24.679Z,0.00
2018-07-24T00:52:24.689Z,0.00
2018-07-24T00:53:24.741Z,0.00
2018-07-24T00:54:24.755Z,0.00
2018-07-24T00:55:24.765Z,0.00
2018-07-24T00:56:24.776Z,0.00
2018-07-24T00:57:24.799Z,0.00
2018-07-24T00:58:24.830Z,0.00
2018-07-24T00:59:24.834Z,0.00
2018-07-24T01:00:24.870Z,0.00
2018-07-24T01:01:24.882Z,0.00
2018-07-24T01:02:24.899Z,0.00
2018-07-24T01:03:24.927Z,0.00
2018-07-24T01:04:24.940Z,0.00
2018-07-24T01:05:24.962Z,0.00
2018-07-24T01:06:24.979Z,0.00
2018-07-24T01:07:25.003Z,0.00
2018-07-24T01:08:25.078Z,0.00
2018-07-24T01:09:25.041Z,0.00
2018-07-24T01:10:25.064Z,0.00
2018-07-24T01:11:25.091Z,0.00
2018-07-24T01:12:25.105Z,0.00
2018-07-24T01:13:25.136Z,0.00
2018-07-24T01:14:25.172Z,0.00
2018-07-24T01:15:25.166Z,0.00
2018-07-24T01:16:25.184Z,0.00
2018-07-24T01:17:25.212Z,0.00
2018-07-24T01:18:25.236Z,0.00
2018-07-24T01:19:25.256Z,0.00
2018-07-24T01:20:25.277Z,0.00
2018-07-24T01:21:25.289Z,0.00
2018-07-24T01:22:25.315Z,0.00
2018-07-24T01:23:25.333Z,0.00
2018-07-24T01:24:25.357Z,0.00
2018-07-24T01:25:25.374Z,0.00
2018-07-24T01:26:25.393Z,0.00
2018-07-24T01:27:25.416Z,0.00
2018-07-24T01:28:25.443Z,0.00
2018-07-24T01:29:25.458Z,0.00
2018-07-24T01:30:25.482Z,0.00
2018-07-24T01:31:25.502Z,0.00
2018-07-24T01:32:25.520Z,0.00
2018-07-24T01:33:25.536Z,0.00
2018-07-24T01:34:25.594Z,0.00
2018-07-24T01:35:25.588Z,0.00
2018-07-24T01:36:25.620Z,0.00
2018-07-24T01:37:25.625Z,0.00
2018-07-24T01:38:25.636Z,0.00
2018-07-24T01:39:25.667Z,0.00
2018-07-24T01:40:25.686Z,0.00
2018-07-24T01:41:25.710Z,0.00
2018-07-24T01:42:25.720Z,0.00
2018-07-24T01:43:25.747Z,0.00
2018-07-24T01:44:25.775Z,0.00
2018-07-24T01:45:25.786Z,0.00
2018-07-24T01:46:25.804Z,0.00
2018-07-24T01:47:25.830Z,0.00
2018-07-24T01:48:25.842Z,0.00
2018-07-24T01:49:25.863Z,0.00
2018-07-24T01:50:25.883Z,0.00
2018-07-24T01:51:25.907Z,0.00
2018-07-24T01:52:25.925Z,0.00
2018-07-24T01:53:25.951Z,0.00
2018-07-24T01:54:25.976Z,0.00
2018-07-24T01:55:25.995Z,0.00
2018-07-24T01:56:26.010Z,0.00
2018-07-24T01:57:26.033Z,0.00
2018-07-24T01:58:26.058Z,0.00
2018-07-24T01:59:26.067Z,0.00
2018-07-24T02:00:26.093Z,0.00
2018-07-24T02:01:26.113Z,0.00
2018-07-24T02:02:26.132Z,0.00
2018-07-24T02:03:26.154Z,0.00
2018-07-24T02:04:26.171Z,0.00
2018-07-24T02:05:26.190Z,0.00
2018-07-24T02:06:26.236Z,0.00
2018-07-24T02:07:26.241Z,0.00
2018-07-24T02:08:26.254Z,0.00
2018-07-24T02:09:26.271Z,0.00
2018-07-24T02:10:26.293Z,0.00
2018-07-24T02:11:26.318Z,0.00
2018-07-24T02:12:26.363Z,0.00
2018-07-24T02:13:26.358Z,0.00
2018-07-24T02:14:26.383Z,0.00
2018-07-24T02:15:26.399Z,0.00
2018-07-24T02:16:26.442Z,0.00
2018-07-24T02:17:26.442Z,0.00
2018-07-24T02:18:26.460Z,0.00
2018-07-24T02:19:26.490Z,0.00
2018-07-24T02:20:26.505Z,0.00
2018-07-24T02:21:26.523Z,0.00
2018-07-24T02:22:26.540Z,0.00
2018-07-24T02:23:26.561Z,0.00
2018-07-24T02:24:26.581Z,0.00
2018-07-24T02:25:26.599Z,0.00
2018-07-24T02:26:26.622Z,0.00
2018-07-24T02:27:26.640Z,0.00
2018-07-24T02:28:26.667Z,0.00
2018-07-24T02:29:26.686Z,0.00
2018-07-24T02:30:26.703Z,0.00
2018-07-24T02:31:26.731Z,0.00
2018-07-24T02:32:26.752Z,0.00
2018-07-24T02:33:26.765Z,0.00
2018-07-24T02:34:26.779Z,0.00
2018-07-24T02:35:26.806Z,0.00
2018-07-24T02:36:26.829Z,0.00
2018-07-24T02:37:26.860Z,0.00
2018-07-24T02:38:26.870Z,0.00
2018-07-24T02:39:26.885Z,0.00
2018-07-24T02:40:26.913Z,0.00
2018-07-24T02:41:26.938Z,0.00
2018-07-24T02:42:26.953Z,0.00
2018-07-24T02:43:26.983Z,0.00
2018-07-24T02:44:27.011Z,0.00
2018-07-24T02:45:27.004Z,0.00
2018-07-24T02:46:27.031Z,0.00
2018-07-24T02:47:27.083Z,0.00
2018-07-24T02:48:27.074Z,0.00
2018-07-24T02:49:27.100Z,0.00
2018-07-24T02:50:27.115Z,0.00
2018-07-24T02:51:27.127Z,0.00
2018-07-24T02:52:27.151Z,0.00
2018-07-24T02:53:27.171Z,0.00
2018-07-24T02:54:27.188Z,0.00
2018-07-24T02:55:27.213Z,0.00
2018-07-24T02:56:27.228Z,0.00
2018-07-24T02:57:27.259Z,0.00
2018-07-24T02:58:27.270Z,0.00
2018-07-24T02:59:27.290Z,0.00
2018-07-24T03:00:27.309Z,0.00
2018-07-24T03:01:27.333Z,0.00
2018-07-24T03:02:27.352Z,0.00
2018-07-24T03:03:27.369Z,0.00
2018-07-24T03:04:27.392Z,0.00
2018-07-24T03:05:27.421Z,0.00
2018-07-24T03:06:27.434Z,0.00
2018-07-24T03:07:27.459Z,0.00
2018-07-24T03:08:27.477Z,0.00
2018-07-24T03:09:27.507Z,0.00
2018-07-24T03:10:27.519Z,0.00
2018-07-24T03:11:27.536Z,0.00
2018-07-24T03:12:27.558Z,0.00
2018-07-24T03:13:27.578Z,0.00
2018-07-24T03:14:27.595Z,0.00
2018-07-24T03:15:27.607Z,0.00
2018-07-24T03:16:27.642Z,0.00
2018-07-24T03:17:27.651Z,5.63
2018-07-24T03:18:27.674Z,5.63
2018-07-24T03:19:27.690Z,5.63
2018-07-24T03:20:27.720Z,5.63
2018-07-24T03:21:27.736Z,5.63
2018-07-24T03:22:27.754Z,5.63
2018-07-24T03:23:27.785Z,5.63
2018-07-24T03:24:27.798Z,5.63
2018-07-24T03:25:27.824Z,11.25
2018-07-24T03:26:27.835Z,11.25
2018-07-24T03:27:27.858Z,11.25
2018-07-24T03:28:27.881Z,11.25
2018-07-24T03:29:27.900Z,11.25
2018-07-24T03:30:27.933Z,11.25
2018-07-24T03:31:27.940Z,16.88
2018-07-24T03:32:27.957Z,16.88
2018-07-24T03:33:27.979Z,16.88
2018-07-24T03:34:27.993Z,16.88
2018-07-24T03:35:28.024Z,22.50
2018-07-24T03:36:28.033Z,22.50
2018-07-24T03:37:28.056Z,22.50
2018-07-24T03:38:28.083Z,22.50
2018-07-24T03:39:28.098Z,28.13
2018-07-24T03:40:28.113Z,28.13
2018-07-24T03:41:28.143Z,28.13
2018-07-24T03:42:28.157Z,33.75
2018-07-24T03:43:28.183Z,33.75
2018-07-24T03:44:28.205Z,33.75
2018-07-24T03:45:28.231Z,39.38
2018-07-24T03:46:28.237Z,39.38
2018-07-24T03:47:28.265Z,39.38
2018-07-24T03:48:28.276Z,45.00
2018-07-24T03:49:28.308Z,45.00
2018-07-24T03:50:28.319Z,50.63
2018-07-24T03:51:28.361Z,50.63
2018-07-24T03:52:28.392Z,56.25
2018-07-24T03:53:28.373Z,56.25
2018-07-24T03:54:28.414Z,56.25
2018-07-24T03:55:28.422Z,61.88
2018-07-24T03:56:28.443Z,61.88
2018-07-24T03:57:28.454Z,67.50
2018-07-24T03:58:28.477Z,67.50
2018-07-24T03:59:28.499Z,73.13
2018-07-24T04:00:28.536Z,73.13
2018-07-24T04:01:28.538Z,78.75
2018-07-24T04:02:28.657Z,78.75
2018-07-24T04:03:28.583Z,84.38
2018-07-24T04:04:28.610Z,84.38
2018-07-24T04:05:28.617Z,90.00
2018-07-24T04:06:28.638Z,90.00
2018-07-24T04:07:28.666Z,95.63
2018-07-24T04:08:28.696Z,95.63
2018-07-24T04:09:28.700Z,101.25
2018-07-24T04:10:28.723Z,101.25
2018-07-24T04:11:28.736Z,106.88
2018-07-24T04:12:28.759Z,106.88
2018-07-24T04:13:28.778Z,112.50
2018-07-24T04:14:28.804Z,112.50
2018-07-24T04:15:28.823Z,118.13
2018-07-24T04:16:28.843Z,118.13
2018-07-24T04:17:28.867Z,123.75
2018-07-24T04:18:28.887Z,123.75
2018-07-24T04:19:28.920Z,129.38
2018-07-24T04:20:28.926Z,135.00
2018-07-24T04:21:28.948Z,135.00
2018-07-24T04:22:28.974Z,140.63
2018-07-24T04:23:28.986Z,140.63
2018-07-24T04:24:29.010Z,146.25
2018-07-24T04:25:29.028Z,151.88
2018-07-24T04:26:29.050Z,151.88
2018-07-24T04:27:29.068Z,157.50
2018-07-24T04:28:29.091Z,163.13
2018-07-24T04:29:29.116Z,163.13
2018-07-24T04:30:29.135Z,168.75
2018-07-24T04:31:29.146Z,174.38
2018-07-24T04:32:29.167Z,174.38
2018-07-24T04:33:29.197Z,180.00
2018-07-24T04:34:29.230Z,185.63
2018-07-24T04:35:29.226Z,185.63
2018-07-24T04:36:29.253Z,185.63
2018-07-24T04:37:29.274Z,185.63
2018-07-24T04:38:29.292Z,191.25
2018-07-24T04:39:29.317Z,196.88
2018-07-24T04:40:29.327Z,202.50
2018-07-24T04:41:29.349Z,202.50
2018-07-24T04:42:29.375Z,208.13
2018-07-24T04:43:29.396Z,208.13
2018-07-24T04:44:29.409Z,213.75
2018-07-24T04:45:29.446Z,213.75
2018-07-24T04:46:29.452Z,219.38
2018-07-24T04:47:29.486Z,225.00
2018-07-24T04:48:29.542Z,225.00
2018-07-24T04:49:29.512Z,230.63
2018-07-24T04:50:29.546Z,236.25
2018-07-24T04:51:29.573Z,241.88
2018-07-24T04:52:29.586Z,241.88
2018-07-24T04:53:29.600Z,247.50
2018-07-24T04:54:29.617Z,253.13
2018-07-24T04:55:29.648Z,264.38
2018-07-24T04:56:29.664Z,270.00
2018-07-24T04:57:29.681Z,281.25
2018-07-24T04:58:29.699Z,303.75
2018-07-24T04:59:29.723Z,466.88
2018-07-24T05:00:29.739Z,1001.25
2018-07-24T05:01:29.764Z,1282.50
2018-07-24T05:02:29.852Z,1316.25
2018-07-24T05:03:29.815Z,1333.13
2018-07-24T05:04:29.830Z,1338.75
2018-07-24T05:05:29.848Z,1378.13
2018-07-24T05:06:29.904Z,1406.25
2018-07-24T05:07:29.908Z,1434.38
2018-07-24T05:08:29.934Z,1423.13
2018-07-24T05:09:29.955Z,1434.38
2018-07-24T05:10:29.995Z,1445.63
2018-07-24T05:11:29.988Z,1445.63
2018-07-24T05:12:30.021Z,1434.38
2018-07-24T05:13:30.034Z,1411.88
2018-07-24T05:14:30.065Z,1428.75
2018-07-24T05:15:30.096Z,1541.25
2018-07-24T05:16:30.116Z,1625.63
2018-07-24T05:17:30.144Z,1530.00
2018-07-24T05:18:30.174Z,1271.25
2018-07-24T05:19:30.186Z,1074.38
2018-07-24T05:20:30.212Z,1113.75
2018-07-24T05:21:30.241Z,1355.63
2018-07-24T05:22:30.266Z,1665.00
2018-07-24T05:23:30.306Z,1704.38
2018-07-24T05:24:30.331Z,1665.00
2018-07-24T05:25:30.369Z,1715.63
2018-07-24T05:26:30.370Z,1732.50
2018-07-24T05:27:30.412Z,1693.13
2018-07-24T05:28:30.444Z,1704.38
2018-07-24T05:29:30.466Z,1726.88
2018-07-24T05:30:30.487Z,1783.13
2018-07-24T05:31:30.505Z,1755.00
2018-07-24T05:32:30.531Z,1698.75
2018-07-24T05:33:30.562Z,1732.50
2018-07-24T05:34:30.605Z,1755.00
2018-07-24T05:35:30.653Z,1665.00
2018-07-24T05:36:30.640Z,1710.00
2018-07-24T05:37:30.673Z,1856.25
2018-07-24T05:38:30.701Z,1777.50
2018-07-24T05:39:30.744Z,1665.00
2018-07-24T05:40:30.765Z,1659.38
2018-07-24T05:41:30.784Z,1743.75
2018-07-24T05:42:30.816Z,1704.38
2018-07-24T05:43:30.847Z,1721.25
2018-07-24T05:44:30.880Z,1710.00
2018-07-24T05:45:30.911Z,1698.75
2018-07-24T05:46:30.935Z,1845.00
2018-07-24T05:47:30.962Z,1963.13
2018-07-24T05:48:31.036Z,2086.88
2018-07-24T05:49:31.023Z,2053.13
2018-07-24T05:50:31.057Z,1974.38
2018-07-24T05:51:31.089Z,2013.75
2018-07-24T05:52:31.105Z,2165.63
2018-07-24T05:53:31.140Z,2148.75
2018-07-24T05:54:31.203Z,2013.75
2018-07-24T05:55:31.203Z,2109.38
2018-07-24T05:56:31.227Z,2013.75
2018-07-24T05:57:31.258Z,1901.25
2018-07-24T05:58:31.301Z,1974.38
2018-07-24T05:59:31.317Z,2109.38
2018-07-24T06:00:31.343Z,2143.13
2018-07-24T06:01:31.376Z,2103.75
2018-07-24T06:02:31.410Z,1878.75
2018-07-24T06:03:31.440Z,1935.00
2018-07-24T06:04:31.467Z,2041.88
2018-07-24T06:05:31.516Z,2013.75
2018-07-24T06:06:31.531Z,2041.88
2018-07-24T06:07:31.560Z,2070.00
2018-07-24T06:08:31.611Z,1923.75
2018-07-24T06:09:31.620Z,1811.25
2018-07-24T06:10:31.655Z,1743.75
2018-07-24T06:11:31.680Z,1771.88
2018-07-24T06:12:31.710Z,2041.88
2018-07-24T06:13:31.739Z,2300.63
2018-07-24T06:14:31.824Z,2250.00
2018-07-24T06:15:31.812Z,2300.63
2018-07-24T06:16:31.836Z,2283.75
2018-07-24T06:17:31.886Z,2221.88
2018-07-24T06:18:31.899Z,2182.50
2018-07-24T06:19:31.927Z,2103.75
2018-07-24T06:20:31.954Z,2154.38
2018-07-24T06:21:31.985Z,2233.13
2018-07-24T06:22:32.017Z,2216.25
2018-07-24T06:23:32.056Z,2188.13
2018-07-24T06:24:32.081Z,2188.13
2018-07-24T06:25:32.129Z,2137.50
2018-07-24T06:26:32.144Z,2154.38
2018-07-24T06:27:32.177Z,2385.00
2018-07-24T06:28:32.210Z,2435.63
2018-07-24T06:29:32.244Z,2396.25
2018-07-24T06:30:32.269Z,2435.63
2018-07-24T06:31:32.308Z,2289.38
2018-07-24T06:32:32.329Z,2165.63
2018-07-24T06:33:32.361Z,2255.63
2018-07-24T06:34:32.411Z,2306.25
2018-07-24T06:35:32.424Z,2289.38
2018-07-24T06:36:32.459Z,2278.13
2018-07-24T06:37:32.484Z,2272.50
2018-07-24T06:38:32.520Z,2221.88
2018-07-24T06:39:32.574Z,2300.63
2018-07-24T06:40:32.599Z,2311.88
2018-07-24T06:41:32.622Z,2356.88
2018-07-24T06:42:32.660Z,2463.75
2018-07-24T06:43:32.680Z,2536.88
2018-07-24T06:44:32.731Z,2486.25
2018-07-24T06:45:32.752Z,2435.63
2018-07-24T06:46:32.769Z,2328.75
2018-07-24T06:47:32.807Z,2311.88
2018-07-24T06:48:32.849Z,2491.88
2018-07-24T06:49:32.873Z,2565.00
2018-07-24T06:50:32.899Z,2486.25
2018-07-24T06:51:33.004Z,2373.75
2018-07-24T06:52:32.973Z,2458.13
2018-07-24T06:53:33.001Z,2615.63
2018-07-24T06:54:33.024Z,2565.00
2018-07-24T06:55:33.067Z,2396.25
2018-07-24T06:56:33.108Z,2340.00
2018-07-24T06:57:33.121Z,2553.75
2018-07-24T06:58:33.163Z,2615.63
2018-07-24T06:59:33.184Z,2626.88
2018-07-24T07:00:33.219Z,2643.75
2018-07-24T07:01:33.257Z,2638.13
2018-07-24T07:02:33.305Z,2655.00
2018-07-24T07:03:33.317Z,2716.88
2018-07-24T07:04:33.370Z,2660.63
2018-07-24T07:05:33.401Z,2503.13
2018-07-24T07:06:33.413Z,2514.38
2018-07-24T07:07:33.482Z,2688.75
2018-07-24T07:08:33.479Z,2818.13
2018-07-24T07:09:33.510Z,2818.13
2018-07-24T07:10:33.537Z,2733.75
2018-07-24T07:11:33.575Z,2514.38
2018-07-24T07:12:33.604Z,2390.63
2018-07-24T07:13:33.813Z,2446.88
2018-07-24T07:14:33.671Z,2581.88
2018-07-24T07:15:33.713Z,2778.75
2018-07-24T07:16:33.737Z,2778.75
2018-07-24T07:17:33.777Z,2716.88
2018-07-24T07:18:33.804Z,2733.75
2018-07-24T07:19:33.832Z,2812.50
2018-07-24T07:20:33.914Z,2677.50
2018-07-24T07:21:33.900Z,2362.50
2018-07-24T07:22:33.936Z,2407.50
2018-07-24T07:23:33.963Z,2424.38
2018-07-24T07:24:33.995Z,2486.25
2018-07-24T07:25:34.029Z,2711.25
2018-07-24T07:26:34.058Z,2660.63
2018-07-24T07:27:34.108Z,2576.25
2018-07-24T07:28:34.124Z,2581.88
2018-07-24T07:29:34.156Z,2660.63
2018-07-24T07:30:34.195Z,2761.88
2018-07-24T07:31:34.223Z,2773.13
2018-07-24T07:32:34.287Z,2700.00
2018-07-24T07:33:34.283Z,2700.00
2018-07-24T07:34:34.326Z,2801.25
2018-07-24T07:35:34.359Z,2851.88
2018-07-24T07:36:34.390Z,2913.75
2018-07-24T07:37:34.450Z,2739.38
2018-07-24T07:38:34.468Z,2621.25
2018-07-24T07:39:34.485Z,2542.50
2018-07-24T07:40:34.533Z,2475.00
2018-07-24T07:41:34.547Z,2559.38
2018-07-24T07:42:34.588Z,2508.75
2018-07-24T07:43:34.626Z,2390.63
2018-07-24T07:44:34.648Z,2385.00
2018-07-24T07:45:34.677Z,2598.75
2018-07-24T07:46:34.714Z,2750.63
2018-07-24T07:47:34.751Z,2486.25
2018-07-24T07:48:34.779Z,2396.25
2018-07-24T07:49:34.841Z,2576.25
2018-07-24T07:50:34.847Z,2553.75
2018-07-24T07:51:34.924Z,2300.63
2018-07-24T07:52:34.978Z,2188.13
2018-07-24T07:53:34.947Z,2615.63
2018-07-24T07:54:34.995Z,2677.50
2018-07-24T07:55:35.016Z,2475.00
2018-07-24T07:56:35.052Z,2508.75
2018-07-24T07:57:35.077Z,2593.13
2018-07-24T07:58:35.112Z,2542.50
2018-07-24T07:59:35.140Z,2520.00
2018-07-24T08:00:35.186Z,2559.38
2018-07-24T08:01:35.212Z,2531.25
2018-07-24T08:02:35.341Z,2491.88
2018-07-24T08:03:35.271Z,2587.50
2018-07-24T08:04:35.308Z,2565.00
2018-07-24T08:05:35.338Z,2520.00
2018-07-24T08:06:35.380Z,2542.50
2018-07-24T08:07:35.411Z,2570.63
2018-07-24T08:08:35.441Z,2486.25
2018-07-24T08:09:35.469Z,2458.13
2018-07-24T08:10:35.502Z,2542.50
2018-07-24T08:11:35.538Z,2559.38
2018-07-24T08:12:35.570Z,2593.13
2018-07-24T08:13:35.595Z,2576.25
2018-07-24T08:14:35.630Z,2351.25
2018-07-24T08:15:35.665Z,2323.13
2018-07-24T08:16:35.695Z,2486.25
2018-07-24T08:17:35.735Z,2486.25
2018-07-24T08:18:35.764Z,2407.50
2018-07-24T08:19:35.796Z,2458.13
2018-07-24T08:20:35.832Z,2390.63
2018-07-24T08:21:35.869Z,2334.38
2018-07-24T08:22:35.896Z,2334.38
2018-07-24T08:23:35.931Z,2413.13
2018-07-24T08:24:35.955Z,2396.25
2018-07-24T08:25:35.990Z,2311.88
2018-07-24T08:26:36.025Z,2199.38
2018-07-24T08:27:36.068Z,2311.88
2018-07-24T08:28:36.101Z,2300.63
2018-07-24T08:29:36.124Z,2143.13
2018-07-24T08:30:36.173Z,2171.25
2018-07-24T08:31:36.201Z,2244.38
2018-07-24T08:32:36.217Z,2306.25
2018-07-24T08:33:36.298Z,2261.25
2018-07-24T08:34:36.276Z,2030.63
2018-07-24T08:35:36.312Z,2126.25
2018-07-24T08:36:36.339Z,2137.50
2018-07-24T08:37:36.375Z,2036.25
2018-07-24T08:38:36.413Z,1192.50
2018-07-24T08:39:36.441Z,455.63
2018-07-24T08:40:36.469Z,416.25
2018-07-24T08:41:36.501Z,399.38
2018-07-24T08:42:36.523Z,399.38
2018-07-24T08:43:36.553Z,393.75
2018-07-24T08:44:36.633Z,393.75
2018-07-24T08:45:36.620Z,393.75
2018-07-24T08:46:36.643Z,388.13
2018-07-24T08:47:36.670Z,388.13
2018-07-24T08:48:36.704Z,388.13
2018-07-24T08:49:36.731Z,388.13
2018-07-24T08:50:36.757Z,382.50
2018-07-24T08:51:36.788Z,382.50
2018-07-24T08:52:36.909Z,382.50
2018-07-24T08:53:37.296Z,382.50
2018-07-24T08:54:37.021Z,382.50
2018-07-24T08:55:37.206Z,382.50
2018-07-24T08:56:36.935Z,382.50
2018-07-24T08:57:36.977Z,382.50
2018-07-24T08:58:37.003Z,382.50
2018-07-24T08:59:37.017Z,376.88
2018-07-24T09:00:37.076Z,376.88
2018-07-24T09:01:37.071Z,376.88
2018-07-24T09:02:37.097Z,376.88
2018-07-24T09:03:37.238Z,376.88
2018-07-24T09:04:37.149Z,376.88
2018-07-24T09:05:37.182Z,376.88
2018-07-24T09:06:37.208Z,376.88
2018-07-24T09:07:37.237Z,376.88
2018-07-24T09:08:37.265Z,376.88
2018-07-24T09:09:37.286Z,371.25
2018-07-24T09:10:37.316Z,371.25
2018-07-24T09:11:37.360Z,371.25
2018-07-24T09:12:37.368Z,371.25
2018-07-24T09:13:37.408Z,371.25
2018-07-24T09:14:37.419Z,371.25
2018-07-24T09:15:37.514Z,371.25
2018-07-24T09:16:37.475Z,371.25
2018-07-24T09:17:37.507Z,371.25
2018-07-24T09:18:37.530Z,365.63
2018-07-24T09:19:37.565Z,365.63
2018-07-24T09:20:37.588Z,365.63
2018-07-24T09:21:37.604Z,365.63
2018-07-24T09:22:37.638Z,365.63
2018-07-24T09:23:37.662Z,365.63
2018-07-24T09:24:37.690Z,365.63
2018-07-24T09:25:37.718Z,365.63
2018-07-24T09:26:37.746Z,365.63
2018-07-24T09:27:37.764Z,360.00
2018-07-24T09:28:37.807Z,360.00
2018-07-24T09:29:37.820Z,360.00
2018-07-24T09:30:37.853Z,360.00
2018-07-24T09:31:37.870Z,360.00
2018-07-24T09:32:37.895Z,360.00
2018-07-24T09:33:37.925Z,360.00
2018-07-24T09:34:37.947Z,354.38
2018-07-24T09:35:37.984Z,354.38
2018-07-24T09:36:38.020Z,354.38
2018-07-24T09:37:38.027Z,354.38
2018-07-24T09:38:38.056Z,354.38
2018-07-24T09:39:38.094Z,354.38
2018-07-24T09:40:38.110Z,360.00
2018-07-24T09:41:38.138Z,354.38
2018-07-24T09:42:38.167Z,354.38
2018-07-24T09:43:38.193Z,354.38
2018-07-24T09:44:38.211Z,354.38
2018-07-24T09:45:38.240Z,354.38
2018-07-24T09:46:38.279Z,354.38
2018-07-24T09:47:38.297Z,354.38
2018-07-24T09:48:38.370Z,348.75
2018-07-24T09:49:38.349Z,348.75
2018-07-24T09:50:38.440Z,348.75
2018-07-24T09:51:38.403Z,348.75
2018-07-24T09:52:38.430Z,348.75
2018-07-24T09:53:38.451Z,348.75
2018-07-24T09:54:38.490Z,348.75
2018-07-24T09:55:38.507Z,348.75
2018-07-24T09:56:38.531Z,343.13
2018-07-24T09:57:38.570Z,343.13
2018-07-24T09:58:38.584Z,343.13
2018-07-24T09:59:38.628Z,343.13
2018-07-24T10:00:38.643Z,343.13
2018-07-24T10:01:38.668Z,343.13
2018-07-24T10:02:38.694Z,343.13
2018-07-24T10:03:38.723Z,343.13
2018-07-24T10:04:38.753Z,343.13
2018-07-24T10:05:38.784Z,337.50
2018-07-24T10:06:38.804Z,337.50
2018-07-24T10:07:38.827Z,337.50
2018-07-24T10:08:38.860Z,337.50
2018-07-24T10:09:38.887Z,337.50
2018-07-24T10:10:38.908Z,337.50
2018-07-24T10:11:38.932Z,337.50
2018-07-24T10:12:39.042Z,337.50
2018-07-24T10:13:38.987Z,337.50
2018-07-24T10:14:39.015Z,331.88
2018-07-24T10:15:39.051Z,331.88
2018-07-24T10:16:39.154Z,331.88
2018-07-24T10:17:39.102Z,331.88
2018-07-24T10:18:39.125Z,331.88
2018-07-24T10:19:39.155Z,331.88
2018-07-24T10:20:39.170Z,331.88
2018-07-24T10:21:39.212Z,331.88
2018-07-24T10:22:39.226Z,331.88
2018-07-24T10:23:39.274Z,331.88
2018-07-24T10:24:39.283Z,331.88
2018-07-24T10:25:39.306Z,331.88
2018-07-24T10:26:39.336Z,331.88
2018-07-24T10:27:39.367Z,331.88
2018-07-24T10:28:39.392Z,326.25
2018-07-24T10:29:39.430Z,326.25
2018-07-24T10:30:39.449Z,326.25
2018-07-24T10:31:39.471Z,326.25
2018-07-24T10:32:39.497Z,326.25
2018-07-24T10:33:39.522Z,326.25
2018-07-24T10:34:39.560Z,326.25
2018-07-24T10:35:39.590Z,331.88
2018-07-24T10:36:39.606Z,331.88
2018-07-24T10:37:39.629Z,326.25
2018-07-24T10:38:39.663Z,326.25
2018-07-24T10:39:39.692Z,326.25
2018-07-24T10:40:39.712Z,320.63
2018-07-24T10:41:39.740Z,320.63
2018-07-24T10:42:39.772Z,320.63
2018-07-24T10:43:39.822Z,320.63
2018-07-24T10:44:39.825Z,320.63
2018-07-24T10:45:39.849Z,320.63
2018-07-24T10:46:39.877Z,320.63
2018-07-24T10:47:39.901Z,326.25
2018-07-24T10:48:39.931Z,320.63
2018-07-24T10:49:39.964Z,320.63
2018-07-24T10:50:39.984Z,320.63
2018-07-24T10:51:40.014Z,320.63
2018-07-24T10:52:40.041Z,315.00
2018-07-24T10:53:40.062Z,315.00
2018-07-24T10:54:40.093Z,315.00
2018-07-24T10:55:40.116Z,320.63
2018-07-24T10:56:40.144Z,315.00
2018-07-24T10:57:40.194Z,315.00
2018-07-24T10:58:40.222Z,315.00
2018-07-24T10:59:40.228Z,315.00
2018-07-24T11:00:40.254Z,315.00
2018-07-24T11:01:40.286Z,315.00
2018-07-24T11:02:40.311Z,315.00
2018-07-24T11:03:40.351Z,315.00
2018-07-24T11:04:40.364Z,309.38
2018-07-24T11:05:40.384Z,315.00
2018-07-24T11:06:40.415Z,309.38
2018-07-24T11:07:40.442Z,309.38
2018-07-24T11:08:40.470Z,309.38
2018-07-24T11:09:40.506Z,309.38
2018-07-24T11:10:40.548Z,309.38
2018-07-24T11:11:40.548Z,309.38
2018-07-24T11:12:40.578Z,309.38
2018-07-24T11:13:40.601Z,309.38
2018-07-24T11:14:40.646Z,309.38
2018-07-24T11:15:40.667Z,309.38
2018-07-24T11:16:40.728Z,309.38
2018-07-24T11:17:40.710Z,309.38
2018-07-24T11:18:40.738Z,309.38
2018-07-24T11:19:40.776Z,309.38
2018-07-24T11:20:40.800Z,303.75
2018-07-24T11:21:40.830Z,303.75
2018-07-24T11:22:41.035Z,303.75
2018-07-24T11:23:40.884Z,303.75
2018-07-24T11:24:40.899Z,303.75
2018-07-24T11:25:40.926Z,303.75
2018-07-24T11:26:40.955Z,303.75
2018-07-24T11:27:40.985Z,303.75
2018-07-24T11:28:41.003Z,303.75
2018-07-24T11:29:41.037Z,303.75
2018-07-24T11:30:41.083Z,303.75
2018-07-24T11:31:41.086Z,303.75
2018-07-24T11:32:41.113Z,303.75
2018-07-24T11:33:41.144Z,298.13
2018-07-24T11:34:41.170Z,298.13
2018-07-24T11:35:41.336Z,298.13
2018-07-24T11:36:41.222Z,298.13
2018-07-24T11:37:41.249Z,298.13
2018-07-24T11:38:41.284Z,298.13
2018-07-24T11:39:41.305Z,298.13
2018-07-24T11:40:41.328Z,298.13
2018-07-24T11:41:41.354Z,298.13
2018-07-24T11:42:41.383Z,298.13
2018-07-24T11:43:41.421Z,298.13
2018-07-24T11:44:41.435Z,298.13
2018-07-24T11:45:41.464Z,298.13
2018-07-24T11:46:41.491Z,298.13
2018-07-24T11:47:41.517Z,298.13
2018-07-24T11:48:41.547Z,292.50
2018-07-24T11:49:41.577Z,292.50
2018-07-24T11:50:41.604Z,292.50
2018-07-24T11:51:41.720Z,292.50
2018-07-24T11:52:41.658Z,292.50
2018-07-24T11:53:41.683Z,292.50
2018-07-24T11:54:41.708Z,292.50
2018-07-24T11:55:41.736Z,292.50
2018-07-24T11:56:41.763Z,292.50
2018-07-24T11:57:41.801Z,292.50
2018-07-24T11:58:41.892Z,292.50
2018-07-24T11:59:41.847Z,292.50
2018-07-24T12:00:41.872Z,292.50
2018-07-24T12:01:41.902Z,286.88
2018-07-24T12:02:41.943Z,286.88
2018-07-24T12:03:41.953Z,286.88
2018-07-24T12:04:42.034Z,286.88
2018-07-24T12:05:42.010Z,286.88
2018-07-24T12:06:42.037Z,286.88
2018-07-24T12:07:42.097Z,286.88
2018-07-24T12:08:42.084Z,286.88
2018-07-24T12:09:42.112Z,286.88
2018-07-24T12:10:42.136Z,286.88
2018-07-24T12:11:42.171Z,286.88
2018-07-24T12:12:42.206Z,286.88
2018-07-24T12:13:42.229Z,281.25
2018-07-24T12:14:42.293Z,281.25
2018-07-24T12:15:42.277Z,281.25
2018-07-24T12:16:42.301Z,281.25
2018-07-24T12:17:42.331Z,281.25
2018-07-24T12:18:42.353Z,281.25
2018-07-24T12:19:42.450Z,281.25
2018-07-24T12:20:42.410Z,281.25
2018-07-24T12:21:42.433Z,281.25
2018-07-24T12:22:42.476Z,281.25
2018-07-24T12:23:42.487Z,281.25
2018-07-24T12:24:42.512Z,281.25
2018-07-24T12:25:42.538Z,281.25
2018-07-24T12:26:42.573Z,281.25
2018-07-24T12:27:42.595Z,281.25
2018-07-24T12:28:42.621Z,281.25
2018-07-24T12:29:42.644Z,281.25
2018-07-24T12:30:42.674Z,281.25
2018-07-24T12:31:42.701Z,275.63
2018-07-24T12:32:42.730Z,281.25
2018-07-24T12:33:42.782Z,275.63
2018-07-24T12:34:42.792Z,275.63
2018-07-24T12:35:42.871Z,275.63